Time;durP1;ratioP1;P1;durP2;ratioP2;P2;SDS_P1;SDS_P2;PMS_P1;PMS_P2;Temp;Humidity;BMP_temperature;BMP_pressure;BME280_temperature;BME280_humidity;BME280_pressure;Samples;Min_cycle;Max_cycle;Signal;HPM_P1;HPM_P2
2022/09/09 00:00:16;;;;;;;903.30;818.22;;;20.00;99.90;;;;;;5049568;28;20206;-79
2022/09/09 00:02:50;;;;;;;893.92;809.08;;;20.00;99.90;;;;;;5046279;28;20226;-80
2022/09/09 00:05:26;;;;;;;891.20;806.47;;;19.90;99.90;;;;;;5052428;28;20218;-80
2022/09/09 00:07:55;;;;;;;902.53;817.25;;;20.00;99.90;;;;;;5044822;28;20664;-79
2022/09/09 00:10:27;;;;;;;903.58;818.33;;;19.90;99.90;;;;;;5051495;28;20194;-79
2022/09/09 00:13:02;;;;;;;888.38;803.60;;;19.90;99.90;;;;;;5052044;28;20199;-80
2022/09/09 00:15:34;;;;;;;886.45;801.78;;;19.90;99.90;;;;;;5046578;28;20217;-79
2022/09/09 00:18:14;;;;;;;903.78;818.58;;;19.90;99.90;;;;;;5049962;28;20203;-78
2022/09/09 00:20:47;;;;;;;888.40;803.60;;;19.90;99.90;;;;;;5051917;28;20304;-79
2022/09/09 00:23:25;;;;;;;895.00;810.00;;;19.90;99.90;;;;;;5049840;28;20210;-80
2022/09/09 00:25:59;;;;;;;890.70;805.75;;;19.90;99.90;;;;;;5051751;28;20563;-80
2022/09/09 00:28:30;;;;;;;879.47;794.90;;;19.90;99.90;;;;;;5052387;28;20654;-78
2022/09/09 00:31:02;;;;;;;893.25;808.25;;;19.90;99.90;;;;;;5050324;28;20195;-79
2022/09/09 00:33:32;;;;;;;897.92;812.85;;;19.80;99.90;;;;;;5041024;28;20214;-78
2022/09/09 00:36:00;;;;;;;882.42;797.75;;;19.80;99.90;;;;;;5050560;28;20241;-79
2022/09/09 00:38:34;;;;;;;886.97;802.28;;;19.80;99.90;;;;;;5045307;28;20278;-79
2022/09/09 00:41:08;;;;;;;896.15;811.17;;;19.80;99.90;;;;;;5052060;28;20693;-78
2022/09/09 00:43:37;;;;;;;893.60;808.60;;;19.80;99.90;;;;;;5049382;28;20199;-78
2022/09/09 00:46:41;;;;;;;904.42;819.03;;;19.80;99.90;;;;;;5049305;28;20203;-77
2022/09/09 00:49:18;;;;;;;896.42;811.25;;;19.80;99.90;;;;;;5045892;28;20274;-79
2022/09/09 00:51:51;;;;;;;901.60;816.38;;;19.80;99.90;;;;;;5055388;28;20205;-78
2022/09/09 00:54:41;;;;;;;893.42;808.53;;;19.80;99.90;;;;;;5051886;28;20198;-78
2022/09/09 00:57:28;;;;;;;884.58;799.80;;;19.80;99.90;;;;;;5048903;28;20194;-78
2022/09/09 01:00:05;;;;;;;887.63;802.83;;;19.70;99.90;;;;;;5048239;28;20212;-78
2022/09/09 01:02:45;;;;;;;868.13;784.13;;;19.70;99.90;;;;;;5043558;28;20236;-78
2022/09/09 01:05:21;;;;;;;872.67;788.22;;;19.70;99.90;;;;;;5049327;28;20643;-78
2022/09/09 01:07:50;;;;;;;883.20;798.55;;;19.70;99.90;;;;;;5048236;28;20209;-78
2022/09/09 01:10:27;;;;;;;890.08;805.28;;;19.70;99.90;;;;;;5054007;28;20195;-78
2022/09/09 01:12:56;;;;;;;879.03;794.47;;;19.70;99.90;;;;;;5051767;28;20233;-79
2022/09/09 01:15:28;;;;;;;886.53;801.78;;;19.70;99.90;;;;;;5049499;28;20195;-78
2022/09/09 01:18:02;;;;;;;882.00;797.33;;;19.60;99.90;;;;;;5052810;28;20225;-78
2022/09/09 01:20:35;;;;;;;866.10;781.92;;;19.60;99.90;;;;;;5053506;28;20187;-78
2022/09/09 01:23:18;;;;;;;863.15;779.03;;;19.60;99.90;;;;;;5047551;28;20294;-78
2022/09/09 01:26:15;;;;;;;884.75;799.70;;;19.60;99.90;;;;;;5056034;28;20723;-78
2022/09/09 01:28:45;;;;;;;889.63;804.63;;;19.60;99.90;;;;;;5066705;28;20213;-78
2022/09/09 01:31:18;;;;;;;890.10;805.15;;;19.60;99.90;;;;;;5065579;28;20205;-78
2022/09/09 01:33:45;;;;;;;888.40;803.63;;;19.60;99.90;;;;;;5061209;28;20198;-78
2022/09/09 01:36:16;;;;;;;890.03;805.30;;;19.60;99.90;;;;;;5049977;28;20200;-79
2022/09/09 01:38:43;;;;;;;873.95;789.78;;;19.60;99.90;;;;;;5045826;28;20688;-79
2022/09/09 01:41:11;;;;;;;888.95;804.03;;;19.60;99.90;;;;;;5064693;28;20219;-79
2022/09/09 01:43:38;;;;;;;882.90;798.20;;;19.60;99.90;;;;;;5065114;28;20207;-79
2022/09/09 01:46:05;;;;;;;886.10;801.40;;;19.60;99.90;;;;;;5055661;28;20238;-79
2022/09/09 01:48:33;;;;;;;870.45;786.03;;;19.50;99.90;;;;;;5058020;28;20275;-79
2022/09/09 01:51:00;;;;;;;870.70;786.47;;;19.50;99.90;;;;;;5062279;28;20195;-79
2022/09/09 01:53:27;;;;;;;864.60;780.30;;;19.50;99.90;;;;;;5060800;28;20195;-78
2022/09/09 01:56:05;;;;;;;900.38;814.95;;;19.50;99.90;;;;;;5052853;28;20204;-79
2022/09/09 01:58:45;;;;;;;880.88;796.20;;;19.50;99.90;;;;;;5068567;28;20278;-79
2022/09/09 02:01:24;;;;;;;885.75;800.78;;;19.50;99.90;;;;;;5054081;28;20223;-78
2022/09/09 02:03:54;;;;;;;873.22;788.85;;;19.50;99.90;;;;;;5059564;28;20227;-79
2022/09/09 02:06:29;;;;;;;870.40;785.72;;;19.50;99.90;;;;;;5057155;28;20723;-79
2022/09/09 02:08:59;;;;;;;884.10;799.33;;;19.40;99.90;;;;;;5049841;28;20201;-77
2022/09/09 02:11:28;;;;;;;866.92;782.67;;;19.40;99.90;;;;;;5051260;28;20261;-77
2022/09/09 02:14:01;;;;;;;891.63;806.60;;;19.40;99.90;;;;;;5050206;28;20206;-77
2022/09/09 02:16:33;;;;;;;863.65;779.17;;;19.40;99.90;;;;;;5050294;28;20195;-77
2022/09/09 02:19:07;;;;;;;860.38;776.30;;;19.40;99.90;;;;;;5050486;28;20207;-75
2022/09/09 02:21:36;;;;;;;867.28;782.72;;;19.40;99.90;;;;;;5044904;28;20212;-76
2022/09/09 02:24:07;;;;;;;864.33;780.10;;;19.40;99.90;;;;;;5050413;28;20198;-77
2022/09/09 02:26:37;;;;;;;897.63;812.13;;;19.40;99.90;;;;;;5051820;28;20705;-75
2022/09/09 02:29:09;;;;;;;876.83;792.15;;;19.30;99.90;;;;;;5048914;28;20207;-75
2022/09/09 02:31:37;;;;;;;886.22;800.97;;;19.30;99.90;;;;;;5046793;28;20210;-76
2022/09/09 02:34:06;;;;;;;856.78;772.72;;;19.30;99.90;;;;;;5042420;28;20206;-78
2022/09/09 02:36:36;;;;;;;870.28;785.83;;;19.30;99.90;;;;;;5046417;28;20561;-75
2022/09/09 02:39:05;;;;;;;870.50;785.90;;;19.30;99.90;;;;;;5050483;28;20191;-75
2022/09/09 02:41:34;;;;;;;862.75;778.63;;;19.30;99.90;;;;;;5050245;28;20699;-75
2022/09/09 02:44:02;;;;;;;868.03;783.53;;;19.30;99.90;;;;;;5047964;28;20225;-75
2022/09/09 02:46:41;;;;;;;862.65;778.60;;;19.30;99.90;;;;;;5048930;28;20704;-75
2022/09/09 02:49:12;;;;;;;862.95;778.65;;;19.30;99.90;;;;;;5044036;28;20289;-75
2022/09/09 02:51:46;;;;;;;877.10;792.05;;;19.30;99.90;;;;;;5043839;28;20203;-75
2022/09/09 02:54:21;;;;;;;860.47;776.30;;;19.30;99.90;;;;;;5040385;28;20200;-76
2022/09/09 02:56:54;;;;;;;860.40;776.22;;;19.30;99.90;;;;;;5047711;28;20198;-77
2022/09/09 02:59:21;;;;;;;845.05;761.22;;;19.30;99.90;;;;;;5046760;28;20211;-76
2022/09/09 03:01:50;;;;;;;859.30;775.10;;;19.30;99.90;;;;;;5050173;28;20640;-76
2022/09/09 03:04:17;;;;;;;862.28;778.08;;;19.30;99.90;;;;;;5049801;28;20211;-76
2022/09/09 03:06:44;;;;;;;861.42;777.33;;;19.30;99.90;;;;;;5047897;28;20286;-77
2022/09/09 03:09:11;;;;;;;868.15;783.83;;;19.30;99.90;;;;;;5046296;28;20195;-76
2022/09/09 03:11:38;;;;;;;860.58;776.58;;;19.20;99.90;;;;;;5034785;28;20229;-76
2022/09/09 03:14:06;;;;;;;872.55;788.17;;;19.20;99.90;;;;;;5046616;28;20741;-77
2022/09/09 03:16:34;;;;;;;861.83;777.42;;;19.20;99.90;;;;;;5049035;28;20226;-76
2022/09/09 03:19:02;;;;;;;864.55;780.35;;;19.20;99.90;;;;;;5048640;28;20196;-76
2022/09/09 03:21:29;;;;;;;869.67;785.10;;;19.20;99.90;;;;;;5036454;28;20301;-76
2022/09/09 03:23:57;;;;;;;867.55;783.28;;;19.20;99.90;;;;;;5054833;28;20203;-76
2022/09/09 03:26:24;;;;;;;858.60;774.50;;;19.20;99.90;;;;;;5054419;28;20199;-76
2022/09/09 03:28:52;;;;;;;862.95;778.47;;;19.20;99.90;;;;;;5053003;28;20729;-76
2022/09/09 03:31:21;;;;;;;874.25;789.78;;;19.20;99.90;;;;;;5049386;28;20565;-78
2022/09/09 03:33:47;;;;;;;874.17;789.35;;;19.20;99.90;;;;;;5049325;28;20264;-76
2022/09/09 03:36:16;;;;;;;865.22;780.78;;;19.20;99.90;;;;;;5037989;28;20192;-78
2022/09/09 03:38:43;;;;;;;869.50;785.13;;;19.10;99.90;;;;;;5048847;28;20218;-77
2022/09/09 03:41:09;;;;;;;870.15;785.75;;;19.20;99.90;;;;;;5054639;28;20650;-76
2022/09/09 03:43:37;;;;;;;870.42;786.05;;;19.10;99.90;;;;;;5053749;28;20198;-76
2022/09/09 03:46:04;;;;;;;841.40;757.90;;;19.10;99.90;;;;;;5049445;28;20281;-76
2022/09/09 03:48:31;;;;;;;862.83;778.53;;;19.10;99.90;;;;;;5054609;28;20206;-77
2022/09/09 03:51:00;;;;;;;855.60;771.72;;;19.10;99.90;;;;;;5053401;28;20222;-76
2022/09/09 03:53:29;;;;;;;876.53;791.90;;;19.10;99.90;;;;;;5048057;28;20191;-76
2022/09/09 03:55:59;;;;;;;862.17;777.72;;;19.10;99.90;;;;;;5049800;28;20685;-76
2022/09/09 03:58:27;;;;;;;839.70;755.97;;;19.10;99.90;;;;;;5051229;28;20245;-76
2022/09/09 04:00:56;;;;;;;856.33;772.22;;;19.10;99.90;;;;;;5050956;28;20203;-77
2022/09/09 04:03:24;;;;;;;859.65;775.45;;;19.10;99.90;;;;;;5048330;28;20234;-75
2022/09/09 04:05:51;;;;;;;855.03;771.13;;;19.10;99.90;;;;;;5053379;28;20289;-76
2022/09/09 04:08:18;;;;;;;851.65;767.67;;;19.10;99.90;;;;;;5042928;28;20201;-76
2022/09/09 04:10:47;;;;;;;850.05;765.97;;;19.10;99.90;;;;;;5052682;28;20210;-76
2022/09/09 04:13:17;;;;;;;842.90;759.20;;;19.10;99.90;;;;;;5044767;28;20191;-76
2022/09/09 04:15:44;;;;;;;846.83;763.03;;;19.10;99.90;;;;;;5048613;28;20209;-76
2022/09/09 04:18:12;;;;;;;854.33;770.25;;;19.00;99.90;;;;;;5047674;28;20531;-77
2022/09/09 04:20:38;;;;;;;848.67;765.05;;;19.10;99.90;;;;;;5053928;28;20344;-76
2022/09/09 04:23:06;;;;;;;861.53;777.33;;;19.00;99.90;;;;;;5049786;28;20292;-78
2022/09/09 04:25:33;;;;;;;839.78;756.08;;;19.00;99.90;;;;;;5053003;28;20290;-75
2022/09/09 04:28:02;;;;;;;853.08;769.20;;;19.00;99.90;;;;;;5039701;28;20197;-76
2022/09/09 04:30:29;;;;;;;837.97;754.55;;;19.00;99.90;;;;;;5044103;28;20195;-76
2022/09/09 04:32:56;;;;;;;872.20;787.78;;;19.00;99.90;;;;;;5049637;28;20574;-78
2022/09/09 04:35:22;;;;;;;854.47;770.40;;;19.00;99.90;;;;;;5054641;28;20199;-77
2022/09/09 04:37:49;;;;;;;842.90;759.25;;;19.00;99.90;;;;;;5045895;28;20218;-76
2022/09/09 04:40:16;;;;;;;848.45;764.42;;;19.00;99.90;;;;;;5051618;28;20191;-77
2022/09/09 04:42:43;;;;;;;829.22;745.85;;;19.00;99.90;;;;;;5051749;28;20230;-76
2022/09/09 04:45:13;;;;;;;843.22;759.63;;;19.00;99.90;;;;;;5045369;28;20187;-76
2022/09/09 04:47:40;;;;;;;868.88;784.33;;;19.00;99.90;;;;;;5044621;28;20257;-76
2022/09/09 04:50:08;;;;;;;838.58;754.92;;;19.00;99.90;;;;;;5052311;28;20716;-76
2022/09/09 04:52:35;;;;;;;852.40;768.35;;;19.00;99.90;;;;;;5049390;28;20287;-77
2022/09/09 04:55:02;;;;;;;859.78;775.60;;;19.00;99.90;;;;;;5045261;28;20219;-77
2022/09/09 04:57:31;;;;;;;829.00;745.50;;;19.00;99.90;;;;;;5052899;28;20638;-76
2022/09/09 04:59:59;;;;;;;859.78;775.72;;;19.00;99.90;;;;;;5047630;28;20265;-76
2022/09/09 05:02:28;;;;;;;835.40;752.00;;;19.00;99.90;;;;;;5043361;28;20577;-76
2022/09/09 05:04:55;;;;;;;846.05;762.45;;;19.00;99.90;;;;;;5053415;28;20855;-77
2022/09/09 05:07:21;;;;;;;849.42;765.55;;;18.90;99.90;;;;;;5048857;28;20206;-77
2022/09/09 05:09:49;;;;;;;852.40;768.40;;;19.00;99.90;;;;;;5051560;28;20562;-78
2022/09/09 05:12:17;;;;;;;844.85;761.35;;;19.00;99.90;;;;;;5049530;28;20203;-76
2022/09/09 05:14:44;;;;;;;838.35;754.97;;;18.90;99.90;;;;;;5045139;28;20269;-76
2022/09/09 05:17:11;;;;;;;850.38;766.45;;;18.90;99.90;;;;;;5050613;28;20201;-76
2022/09/09 05:19:39;;;;;;;827.00;743.85;;;18.90;99.90;;;;;;5052364;28;20658;-76
2022/09/09 05:22:05;;;;;;;851.28;767.28;;;18.90;99.90;;;;;;5044540;28;20305;-75
2022/09/09 05:24:33;;;;;;;839.15;755.42;;;18.90;99.90;;;;;;5046886;28;20203;-76
2022/09/09 05:27:02;;;;;;;854.58;770.55;;;18.90;99.90;;;;;;5051583;28;20207;-77
2022/09/09 05:29:29;;;;;;;855.45;771.25;;;18.90;99.90;;;;;;5049060;28;20316;-76
2022/09/09 05:31:55;;;;;;;855.50;771.30;;;18.90;99.90;;;;;;5047538;28;20229;-74
2022/09/09 05:34:22;;;;;;;828.20;744.75;;;18.90;99.90;;;;;;5037676;28;20207;-76
2022/09/09 05:36:50;;;;;;;848.95;765.08;;;18.90;99.90;;;;;;5043374;28;20203;-77
2022/09/09 05:39:17;;;;;;;852.05;768.05;;;18.90;99.90;;;;;;5051064;28;20566;-76
2022/09/09 05:41:44;;;;;;;838.63;755.08;;;18.90;99.90;;;;;;5051786;28;20222;-76
2022/09/09 05:44:11;;;;;;;846.75;762.95;;;18.90;99.90;;;;;;5049973;28;20207;-76
2022/09/09 05:46:38;;;;;;;857.55;773.47;;;18.90;99.90;;;;;;5047301;28;20199;-76
2022/09/09 05:49:05;;;;;;;831.88;748.45;;;18.90;99.90;;;;;;5050556;28;20669;-75
2022/09/09 05:51:32;;;;;;;849.28;765.17;;;18.90;99.90;;;;;;5037250;28;20685;-77
2022/09/09 05:54:01;;;;;;;837.45;753.92;;;18.90;99.90;;;;;;5047547;28;20194;-77
2022/09/09 05:56:29;;;;;;;834.05;750.70;;;18.90;99.90;;;;;;5052038;28;20194;-79
2022/09/09 05:58:57;;;;;;;851.58;767.65;;;18.90;99.90;;;;;;5047847;28;20669;-78
2022/09/09 06:01:26;;;;;;;851.05;767.03;;;18.90;99.90;;;;;;5048417;28;20222;-79
2022/09/09 06:03:53;;;;;;;851.47;767.55;;;18.90;99.90;;;;;;5048307;28;20223;-78
2022/09/09 06:06:22;;;;;;;851.10;767.15;;;18.90;99.90;;;;;;5041065;28;20196;-77
2022/09/09 06:08:51;;;;;;;833.80;750.33;;;18.90;99.90;;;;;;5041060;28;20202;-77
2022/09/09 06:11:21;;;;;;;844.17;760.40;;;18.90;99.90;;;;;;5050054;28;20199;-77
2022/09/09 06:13:51;;;;;;;848.60;764.70;;;18.90;99.90;;;;;;5047060;28;20574;-76
2022/09/09 06:16:19;;;;;;;841.55;757.97;;;18.90;99.90;;;;;;5048518;28;20682;-76
2022/09/09 06:18:48;;;;;;;830.33;746.97;;;18.90;99.90;;;;;;5047763;28;20282;-76
2022/09/09 06:21:17;;;;;;;827.15;743.88;;;18.90;99.90;;;;;;5048560;28;20206;-78
2022/09/09 06:23:45;;;;;;;836.30;752.80;;;18.90;99.90;;;;;;5047318;28;20669;-77
2022/09/09 06:26:13;;;;;;;847.72;763.97;;;18.90;99.90;;;;;;5037017;28;20293;-78
2022/09/09 06:28:42;;;;;;;836.47;753.17;;;18.80;99.90;;;;;;5051266;28;20194;-79
2022/09/09 06:31:11;;;;;;;847.53;763.85;;;18.90;99.90;;;;;;5046073;28;20207;-79
2022/09/09 06:33:40;;;;;;;842.55;758.85;;;18.90;99.90;;;;;;5047731;28;20196;-78
2022/09/09 06:36:11;;;;;;;823.28;740.45;;;18.90;99.90;;;;;;5051919;28;20200;-78
2022/09/09 06:38:37;;;;;;;828.95;745.88;;;18.90;99.90;;;;;;5049787;28;20562;-79
2022/09/09 06:41:05;;;;;;;832.80;749.45;;;18.90;99.90;;;;;;5044412;28;20203;-79
2022/09/09 06:43:32;;;;;;;820.83;737.92;;;18.90;99.90;;;;;;5051378;28;20272;-79
2022/09/09 06:46:03;;;;;;;840.03;756.67;;;18.90;99.90;;;;;;5046152;28;20198;-79
2022/09/09 06:48:30;;;;;;;832.53;749.38;;;18.90;99.90;;;;;;5050189;28;20191;-79
2022/09/09 06:51:04;;;;;;;834.83;751.72;;;18.90;99.90;;;;;;5044674;28;20675;-79
2022/09/09 06:53:33;;;;;;;843.67;760.33;;;18.90;99.90;;;;;;5049722;28;20661;-80
2022/09/09 06:56:01;;;;;;;821.05;737.80;;;18.90;99.90;;;;;;5047421;28;20712;-79
2022/09/09 06:58:29;;;;;;;842.88;759.60;;;19.00;99.90;;;;;;5045356;28;20250;-79
2022/09/09 07:01:04;;;;;;;824.25;741.30;;;19.00;99.90;;;;;;5046827;28;20210;-79
2022/09/09 07:03:31;;;;;;;830.22;746.88;;;19.00;99.90;;;;;;5045541;28;20218;-79
2022/09/09 07:05:59;;;;;;;830.28;746.83;;;19.00;99.90;;;;;;5045479;28;20646;-77
2022/09/09 07:08:26;;;;;;;838.88;755.53;;;19.00;99.90;;;;;;5045356;28;20203;-77
2022/09/09 07:10:53;;;;;;;854.38;770.60;;;19.00;99.90;;;;;;5038290;28;20225;-80
2022/09/09 07:13:24;;;;;;;833.63;750.42;;;19.00;99.90;;;;;;5047752;28;20257;-80
2022/09/09 07:15:51;;;;;;;836.55;753.28;;;19.00;99.90;;;;;;5051918;28;20209;-80
2022/09/09 07:18:20;;;;;;;848.42;765.00;;;19.00;99.90;;;;;;5053630;28;20195;-79
2022/09/09 07:20:54;;;;;;;844.08;760.80;;;19.00;99.90;;;;;;5047412;28;21044;-80
2022/09/09 07:23:22;;;;;;;833.45;750.15;;;19.00;99.90;;;;;;5044009;28;20218;-79
2022/09/09 07:25:49;;;;;;;847.03;763.33;;;19.10;99.90;;;;;;5047306;28;20658;-78
2022/09/09 07:28:15;;;;;;;852.47;768.90;;;19.10;99.90;;;;;;5041344;28;20570;-79
2022/09/09 07:30:42;;;;;;;835.15;751.75;;;19.10;99.90;;;;;;5044477;28;20203;-79
2022/09/09 07:33:09;;;;;;;850.72;766.83;;;19.20;99.90;;;;;;5042479;28;20562;-79
2022/09/09 07:35:38;;;;;;;853.35;769.55;;;19.10;99.90;;;;;;5050527;28;20642;-80
2022/09/09 07:38:06;;;;;;;858.00;774.08;;;19.10;99.90;;;;;;5046990;28;20227;-79
2022/09/09 07:40:33;;;;;;;848.28;764.50;;;19.20;99.90;;;;;;5048490;28;20207;-79
2022/09/09 07:43:00;;;;;;;851.92;768.47;;;19.20;99.90;;;;;;5054758;28;20676;-80
2022/09/09 07:45:28;;;;;;;861.33;777.28;;;19.20;99.90;;;;;;5067011;28;20199;-76
2022/09/09 07:47:56;;;;;;;860.42;776.33;;;19.20;99.90;;;;;;5050908;28;20226;-78
2022/09/09 07:50:23;;;;;;;865.63;781.60;;;19.20;99.90;;;;;;5053499;28;20310;-77
2022/09/09 07:52:51;;;;;;;860.85;776.85;;;19.20;99.90;;;;;;5040626;28;20205;-77
2022/09/09 07:55:19;;;;;;;849.83;766.08;;;19.20;99.90;;;;;;5046574;28;20191;-83
2022/09/09 07:57:46;;;;;;;856.35;772.50;;;19.20;99.90;;;;;;5047367;28;20534;-78
2022/09/09 08:00:14;;;;;;;857.10;773.28;;;19.20;99.90;;;;;;5057508;28;20252;-79
2022/09/09 08:02:41;;;;;;;850.40;766.60;;;19.40;99.90;;;;;;5049679;28;20219;-78
2022/09/09 08:05:08;;;;;;;860.88;776.92;;;19.50;99.90;;;;;;5046740;28;20222;-78
2022/09/09 08:07:35;;;;;;;874.03;789.38;;;19.60;99.90;;;;;;5044696;28;20199;-78
2022/09/09 08:10:04;;;;;;;872.72;788.25;;;19.80;99.90;;;;;;5042861;28;20192;-79
2022/09/09 08:12:30;;;;;;;882.58;797.67;;;20.00;99.90;;;;;;5052674;28;20630;-79
2022/09/09 08:14:58;;;;;;;900.55;815.38;;;20.20;99.90;;;;;;5058505;28;20199;-79
2022/09/09 08:17:24;;;;;;;910.40;824.75;;;20.40;99.90;;;;;;5053044;28;20191;-78
2022/09/09 08:19:51;;;;;;;919.25;833.40;;;20.60;99.90;;;;;;5048067;28;20196;-79
2022/09/09 08:22:19;;;;;;;930.50;844.25;;;20.70;99.90;;;;;;5052423;28;20225;-78
2022/09/09 08:24:47;;;;;;;924.17;838.05;;;20.90;99.90;;;;;;5048110;28;20582;-79
2022/09/09 08:27:15;;;;;;;960.67;873.60;;;21.10;99.90;;;;;;5052146;28;20659;-78
2022/09/09 08:29:41;;;;;;;950.00;863.50;;;21.20;99.90;;;;;;5044672;28;20211;-79
2022/09/09 08:32:08;;;;;;;951.63;864.95;;;21.30;99.90;;;;;;5055810;28;20432;-78
2022/09/09 08:34:35;;;;;;;939.42;853.33;;;21.40;99.90;;;;;;5055173;28;20674;-79
2022/09/09 08:37:02;;;;;;;950.60;864.17;;;21.50;99.90;;;;;;5052587;28;20203;-78
2022/09/09 08:39:29;;;;;;;961.47;874.65;;;21.50;99.90;;;;;;5051389;28;20194;-79
2022/09/09 08:42:22;;;;;;;946.67;860.33;;;21.50;99.90;;;;;;5049549;28;20681;-79
2022/09/09 08:45:04;;;;;;;957.72;871.05;;;21.50;99.90;;;;;;5046926;28;20222;-78
2022/09/09 08:47:39;;;;;;;943.58;857.50;;;21.50;99.90;;;;;;5052997;28;20223;-77
2022/09/09 08:50:17;;;;;;;959.53;873.17;;;21.40;99.90;;;;;;5046656;28;20198;-78
2022/09/09 08:52:52;;;;;;;940.80;855.00;;;21.40;99.90;;;;;;5041526;28;20726;-78
2022/09/09 08:55:28;;;;;;;955.35;868.88;;;21.40;99.90;;;;;;5048597;28;20202;-77
2022/09/09 08:58:00;;;;;;;958.33;871.92;;;21.50;99.90;;;;;;5046121;28;20815;-78
2022/09/09 09:00:34;;;;;;;973.10;886.20;;;21.50;99.90;;;;;;5052529;28;20207;-79
2022/09/09 09:03:09;;;;;;;955.70;869.17;;;21.60;99.90;;;;;;5048624;28;20694;-78
2022/09/09 09:05:43;;;;;;;966.72;880.05;;;21.70;99.90;;;;;;5045405;28;20195;-78
2022/09/09 09:08:19;;;;;;;970.00;883.25;;;21.60;99.90;;;;;;5040678;28;20199;-78
2022/09/09 09:10:49;;;;;;;960.05;873.55;;;21.60;99.90;;;;;;5049613;28;20207;-77
2022/09/09 09:13:21;;;;;;;954.33;867.53;;;21.50;99.90;;;;;;5051583;28;20198;-77
2022/09/09 09:15:53;;;;;;;949.47;863.20;;;21.50;99.90;;;;;;5049324;28;20203;-78
2022/09/09 09:18:20;;;;;;;952.42;866.10;;;21.40;99.90;;;;;;5050978;28;20195;-78
2022/09/09 09:20:55;;;;;;;954.65;868.15;;;21.40;99.90;;;;;;5051115;28;20207;-78
2022/09/09 09:23:24;;;;;;;952.05;865.38;;;21.30;99.90;;;;;;5045629;28;20397;-78
2022/09/09 09:25:55;;;;;;;950.25;863.90;;;21.30;99.90;;;;;;5052554;28;20230;-78
2022/09/09 09:28:25;;;;;;;946.22;859.97;;;21.20;99.90;;;;;;5051382;28;20206;-78
2022/09/09 09:30:57;;;;;;;922.58;836.97;;;21.10;99.90;;;;;;5047717;28;20596;-78
2022/09/09 09:33:28;;;;;;;926.50;840.72;;;21.00;99.90;;;;;;5052766;28;20290;-78
2022/09/09 09:35:55;;;;;;;940.42;854.38;;;21.00;99.90;;;;;;5052309;28;20212;-78
2022/09/09 09:38:24;;;;;;;931.85;846.13;;;20.90;99.90;;;;;;5044611;28;20198;-76
2022/09/09 09:40:54;;;;;;;928.05;842.13;;;20.90;99.90;;;;;;5044678;28;20194;-76
2022/09/09 09:43:25;;;;;;;939.92;853.33;;;21.00;99.90;;;;;;5043843;28;20230;-76
2022/09/09 09:45:52;;;;;;;928.40;842.60;;;21.00;99.90;;;;;;5049067;28;20282;-77
2022/09/09 09:48:19;;;;;;;945.97;859.90;;;21.10;99.90;;;;;;5049433;28;20210;-77
2022/09/09 09:50:52;;;;;;;946.65;860.03;;;21.20;99.90;;;;;;5051420;28;20657;-77
2022/09/09 09:53:23;;;;;;;954.13;867.65;;;21.30;99.90;;;;;;5039743;28;20270;-76
2022/09/09 09:55:55;;;;;;;943.15;856.90;;;21.40;99.90;;;;;;5051750;28;20198;-79
2022/09/09 09:58:22;;;;;;;939.35;853.17;;;21.40;99.90;;;;;;5046898;28;20249;-79
2022/09/09 10:00:53;;;;;;;949.25;862.85;;;21.40;99.90;;;;;;5049531;28;20302;-77
2022/09/09 10:03:24;;;;;;;961.78;875.03;;;21.40;99.90;;;;;;5050098;28;20219;-76
2022/09/09 10:05:51;;;;;;;957.25;870.75;;;21.30;99.90;;;;;;5042045;28;20211;-77
2022/09/09 10:08:20;;;;;;;947.33;860.88;;;21.30;99.90;;;;;;5042065;28;20198;-79
2022/09/09 10:11:05;;;;;;;943.85;857.45;;;21.20;99.90;;;;;;5045061;28;20214;-78
2022/09/09 10:13:40;;;;;;;948.35;861.97;;;21.20;99.90;;;;;;5050779;28;20271;-79
2022/09/09 10:16:31;;;;;;;931.97;846.00;;;21.10;99.90;;;;;;5042410;28;20190;-79
2022/09/09 10:19:02;;;;;;;936.33;850.15;;;21.10;99.90;;;;;;5049252;28;20201;-79
2022/09/09 10:21:49;;;;;;;932.95;847.10;;;21.10;99.90;;;;;;5045446;28;20274;-78
2022/09/09 10:24:45;;;;;;;929.05;843.53;;;21.00;99.90;;;;;;5038240;28;20249;-79
2022/09/09 10:27:20;;;;;;;905.90;820.90;;;21.00;99.90;;;;;;5048319;28;20223;-78
2022/09/09 10:30:08;;;;;;;923.13;837.47;;;21.00;99.90;;;;;;5049652;28;20658;-81
2022/09/09 10:32:46;;;;;;;929.63;843.55;;;21.00;99.90;;;;;;5041293;28;20203;-80
2022/09/09 10:35:30;;;;;;;925.15;839.60;;;21.10;99.90;;;;;;5048220;28;20796;-78
2022/09/09 10:38:13;;;;;;;924.75;839.25;;;21.20;99.90;;;;;;5048053;28;20207;-79
2022/09/09 10:40:51;;;;;;;928.10;842.42;;;21.20;99.90;;;;;;5047920;28;20206;-80
2022/09/09 10:43:30;;;;;;;920.00;834.35;;;21.20;99.90;;;;;;5047393;28;20209;-79
2022/09/09 10:46:06;;;;;;;924.50;839.20;;;21.30;99.90;;;;;;5045349;28;20650;-77
2022/09/09 10:48:49;;;;;;;940.90;855.10;;;21.30;99.90;;;;;;5043730;28;20563;-79
2022/09/09 10:51:24;;;;;;;930.28;844.60;;;21.30;99.90;;;;;;5041219;28;20195;-80
2022/09/09 10:54:05;;;;;;;946.95;860.95;;;21.30;99.90;;;;;;5047393;28;20195;-81
2022/09/09 10:56:34;;;;;;;929.25;843.65;;;21.30;99.90;;;;;;5049840;28;20209;-77
2022/09/09 10:59:07;;;;;;;926.28;840.90;;;21.30;99.90;;;;;;5050903;28;20199;-76
2022/09/09 11:01:41;;;;;;;927.67;842.25;;;21.30;99.90;;;;;;5045879;28;20394;-78
2022/09/09 11:04:20;;;;;;;947.78;861.78;;;21.40;99.90;;;;;;5043435;28;20314;-77
2022/09/09 11:06:52;;;;;;;942.55;856.75;;;21.40;99.90;;;;;;5043489;28;20289;-77
2022/09/09 11:09:23;;;;;;;945.22;859.35;;;21.40;99.90;;;;;;5050685;28;20225;-78
2022/09/09 11:11:54;;;;;;;934.63;849.00;;;21.40;99.90;;;;;;5051019;28;20241;-76
2022/09/09 11:14:28;;;;;;;945.03;858.85;;;21.40;99.90;;;;;;5049882;28;20194;-75
2022/09/09 11:16:59;;;;;;;961.15;874.78;;;21.40;99.90;;;;;;5044970;28;20234;-78
2022/09/09 11:19:34;;;;;;;923.38;837.97;;;21.40;99.90;;;;;;5043170;28;20203;-76
2022/09/09 11:22:03;;;;;;;951.08;864.92;;;21.40;99.90;;;;;;5034525;28;20191;-76
2022/09/09 11:24:36;;;;;;;956.53;869.95;;;21.40;99.90;;;;;;5045654;28;20226;-78
2022/09/09 11:27:11;;;;;;;947.00;860.70;;;21.40;99.90;;;;;;5049209;28;20301;-79
2022/09/09 11:30:12;;;;;;;940.42;854.70;;;21.50;99.90;;;;;;5048554;28;20204;-78
2022/09/09 11:33:10;;;;;;;947.10;861.22;;;21.50;99.90;;;;;;5046168;28;20207;-79
2022/09/09 11:35:48;;;;;;;930.03;844.47;;;21.50;99.90;;;;;;5040880;28;20222;-78
2022/09/09 11:38:26;;;;;;;947.22;861.15;;;21.50;99.90;;;;;;5043515;28;20211;-78
2022/09/09 11:41:00;;;;;;;947.30;861.40;;;21.50;99.90;;;;;;5049493;28;20202;-77
2022/09/09 11:43:31;;;;;;;927.53;841.88;;;21.50;99.90;;;;;;5039597;28;20238;-78
2022/09/09 11:46:02;;;;;;;948.20;861.88;;;21.50;99.90;;;;;;5047117;28;20242;-77
2022/09/09 11:48:35;;;;;;;961.75;875.17;;;21.50;99.90;;;;;;5050146;28;20195;-78
2022/09/09 11:51:07;;;;;;;941.05;855.30;;;21.50;99.90;;;;;;5047291;28;20191;-78
2022/09/09 11:53:35;;;;;;;950.58;864.38;;;21.60;99.90;;;;;;5044142;28;20234;-79
2022/09/09 11:56:07;;;;;;;949.63;863.38;;;21.50;99.90;;;;;;5060066;28;20202;-78
2022/09/09 11:58:40;;;;;;;945.85;859.90;;;21.60;99.90;;;;;;5052618;28;20226;-78
2022/09/09 12:01:28;;;;;;;943.80;858.05;;;21.60;99.90;;;;;;5047006;28;20201;-78
2022/09/09 12:04:06;;;;;;;947.15;860.85;;;21.60;99.90;;;;;;5053369;28;20705;-77
2022/09/09 12:06:45;;;;;;;954.33;868.25;;;21.60;99.90;;;;;;5037827;28;20206;-77
2022/09/09 12:09:20;;;;;;;939.53;853.83;;;21.50;99.90;;;;;;5049130;28;20282;-78
2022/09/09 12:11:47;;;;;;;942.38;856.53;;;21.50;99.90;;;;;;5051998;28;20194;-78
2022/09/09 12:14:22;;;;;;;944.20;858.55;;;21.50;99.90;;;;;;5048841;28;20191;-78
2022/09/09 12:16:50;;;;;;;945.55;859.75;;;21.50;99.90;;;;;;5051404;28;20202;-78
2022/09/09 12:19:20;;;;;;;936.80;851.13;;;21.50;99.90;;;;;;5053575;28;20662;-78
2022/09/09 12:21:54;;;;;;;959.95;873.35;;;21.60;99.90;;;;;;5048653;28;20325;-77
2022/09/09 12:24:30;;;;;;;952.92;866.75;;;21.60;99.90;;;;;;5050710;28;20218;-78
2022/09/09 12:27:05;;;;;;;958.95;872.75;;;21.60;99.90;;;;;;5052857;28;20206;-78